sensor_id;sensor_type;location;lat;lon;timestamp;pressure;altitude;pressure_sealevel;temperature
67966;BMP280;54749;47.850;9.002;2023-10-08T00:01:10;96904.13;;;9.45
67966;BMP280;54749;47.850;9.002;2023-10-08T00:03:43;96902.41;;;9.46
67966;BMP280;54749;47.850;9.002;2023-10-08T00:06:21;96914.16;;;9.47
67966;BMP280;54749;47.850;9.002;2023-10-08T00:08:49;96911.31;;;9.38
67966;BMP280;54749;47.850;9.002;2023-10-08T00:11:17;96918.31;;;9.33
67966;BMP280;54749;47.850;9.002;2023-10-08T00:13:47;96910.84;;;9.31
67966;BMP280;54749;47.850;9.002;2023-10-08T00:16:16;96913.28;;;9.33
67966;BMP280;54749;47.850;9.002;2023-10-08T00:18:44;96916.69;;;9.32
67966;BMP280;54749;47.850;9.002;2023-10-08T00:21:21;96915.25;;;9.28
67966;BMP280;54749;47.850;9.002;2023-10-08T00:23:55;96905.78;;;9.31
67966;BMP280;54749;47.850;9.002;2023-10-08T00:26:28;96912.66;;;9.29
67966;BMP280;54749;47.850;9.002;2023-10-08T00:29:05;96910.19;;;9.28
67966;BMP280;54749;47.850;9.002;2023-10-08T00:31:34;96906.84;;;9.27
67966;BMP280;54749;47.850;9.002;2023-10-08T00:34:04;96901.75;;;9.29
67966;BMP280;54749;47.850;9.002;2023-10-08T00:36:32;96906.78;;;9.29
67966;BMP280;54749;47.850;9.002;2023-10-08T00:39:03;96908.75;;;9.24
67966;BMP280;54749;47.850;9.002;2023-10-08T00:41:35;96898.97;;;9.18
67966;BMP280;54749;47.850;9.002;2023-10-08T00:44:09;96897.28;;;9.19
67966;BMP280;54749;47.850;9.002;2023-10-08T00:46:40;96895.75;;;9.16
67966;BMP280;54749;47.850;9.002;2023-10-08T00:49:21;96884.91;;;9.14
67966;BMP280;54749;47.850;9.002;2023-10-08T00:51:55;96875.91;;;9.10
67966;BMP280;54749;47.850;9.002;2023-10-08T00:54:46;96889.59;;;9.07
67966;BMP280;54749;47.850;9.002;2023-10-08T00:57:27;96880.50;;;9.04
67966;BMP280;54749;47.850;9.002;2023-10-08T00:59:57;96881.31;;;9.05
67966;BMP280;54749;47.850;9.002;2023-10-08T01:02:30;96894.94;;;9.01
67966;BMP280;54749;47.850;9.002;2023-10-08T01:05:17;96887.63;;;8.96
67966;BMP280;54749;47.850;9.002;2023-10-08T01:07:53;96890.25;;;8.95
67966;BMP280;54749;47.850;9.002;2023-10-08T01:10:22;96894.50;;;8.94
67966;BMP280;54749;47.850;9.002;2023-10-08T01:12:52;96898.88;;;8.91
67966;BMP280;54749;47.850;9.002;2023-10-08T01:15:28;96893.09;;;8.89
67966;BMP280;54749;47.850;9.002;2023-10-08T01:17:57;96889.13;;;8.85
67966;BMP280;54749;47.850;9.002;2023-10-08T01:20:28;96885.84;;;8.83
67966;BMP280;54749;47.850;9.002;2023-10-08T01:23:05;96884.41;;;8.79
67966;BMP280;54749;47.850;9.002;2023-10-08T01:25:37;96874.09;;;8.69
67966;BMP280;54749;47.850;9.002;2023-10-08T01:28:06;96763.94;;;8.71
67966;BMP280;54749;47.850;9.002;2023-10-08T01:30:44;96881.66;;;8.69
67966;BMP280;54749;47.850;9.002;2023-10-08T01:33:14;96879.72;;;8.74
67966;BMP280;54749;47.850;9.002;2023-10-08T01:35:43;96888.00;;;8.75
67966;BMP280;54749;47.850;9.002;2023-10-08T01:38:10;96879.13;;;8.84
67966;BMP280;54749;47.850;9.002;2023-10-08T01:40:41;96882.13;;;8.90
67966;BMP280;54749;47.850;9.002;2023-10-08T01:43:09;96883.84;;;8.90
67966;BMP280;54749;47.850;9.002;2023-10-08T01:45:37;96867.19;;;8.87
67966;BMP280;54749;47.850;9.002;2023-10-08T01:48:11;96878.16;;;8.86
67966;BMP280;54749;47.850;9.002;2023-10-08T01:50:39;96861.41;;;8.85
67966;BMP280;54749;47.850;9.002;2023-10-08T01:53:06;96874.81;;;8.86
67966;BMP280;54749;47.850;9.002;2023-10-08T01:55:36;96871.47;;;8.85
67966;BMP280;54749;47.850;9.002;2023-10-08T01:58:18;96864.97;;;8.81
67966;BMP280;54749;47.850;9.002;2023-10-08T02:00:48;96870.91;;;8.80
67966;BMP280;54749;47.850;9.002;2023-10-08T02:03:16;96867.50;;;8.81
67966;BMP280;54749;47.850;9.002;2023-10-08T02:05:46;96870.91;;;8.80
67966;BMP280;54749;47.850;9.002;2023-10-08T02:08:14;96862.88;;;8.74
67966;BMP280;54749;47.850;9.002;2023-10-08T02:10:43;96862.16;;;8.72
67966;BMP280;54749;47.850;9.002;2023-10-08T02:13:14;96868.97;;;8.70
67966;BMP280;54749;47.850;9.002;2023-10-08T02:15:44;96857.44;;;8.66
67966;BMP280;54749;47.850;9.002;2023-10-08T02:18:12;96853.38;;;8.64
67966;BMP280;54749;47.850;9.002;2023-10-08T02:20:39;96849.56;;;8.57
67966;BMP280;54749;47.850;9.002;2023-10-08T02:23:07;96863.94;;;8.55
67966;BMP280;54749;47.850;9.002;2023-10-08T02:25:34;96853.06;;;8.55
67966;BMP280;54749;47.850;9.002;2023-10-08T02:28:08;96859.91;;;8.53
67966;BMP280;54749;47.850;9.002;2023-10-08T02:30:36;96863.31;;;8.52
67966;BMP280;54749;47.850;9.002;2023-10-08T02:33:04;96849.16;;;8.49
67966;BMP280;54749;47.850;9.002;2023-10-08T02:35:42;96864.44;;;8.46
67966;BMP280;54749;47.850;9.002;2023-10-08T02:38:16;96846.81;;;8.46
67966;BMP280;54749;47.850;9.002;2023-10-08T02:40:44;96846.06;;;8.44
67966;BMP280;54749;47.850;9.002;2023-10-08T02:43:16;96841.94;;;8.43
67966;BMP280;54749;47.850;9.002;2023-10-08T02:45:44;96844.47;;;8.43
67966;BMP280;54749;47.850;9.002;2023-10-08T02:48:17;96848.19;;;8.37
67966;BMP280;54749;47.850;9.002;2023-10-08T02:50:45;96854.44;;;8.30
67966;BMP280;54749;47.850;9.002;2023-10-08T02:53:13;96853.13;;;8.23
67966;BMP280;54749;47.850;9.002;2023-10-08T02:55:45;96862.72;;;8.17
67966;BMP280;54749;47.850;9.002;2023-10-08T02:58:14;96856.47;;;8.08
67966;BMP280;54749;47.850;9.002;2023-10-08T03:00:43;96854.41;;;8.15
67966;BMP280;54749;47.850;9.002;2023-10-08T03:03:11;96852.41;;;8.21
67966;BMP280;54749;47.850;9.002;2023-10-08T03:05:50;96842.66;;;8.30
67966;BMP280;54749;47.850;9.002;2023-10-08T03:08:19;96851.75;;;8.33
67966;BMP280;54749;47.850;9.002;2023-10-08T03:10:51;96851.75;;;8.33
67966;BMP280;54749;47.850;9.002;2023-10-08T03:13:23;96847.78;;;8.29
67966;BMP280;54749;47.850;9.002;2023-10-08T03:15:50;96838.75;;;8.25
67966;BMP280;54749;47.850;9.002;2023-10-08T03:18:30;96839.97;;;8.18
67966;BMP280;54749;47.850;9.002;2023-10-08T03:21:10;96846.78;;;8.16
67966;BMP280;54749;47.850;9.002;2023-10-08T03:24:10;96842.56;;;8.17
67966;BMP280;54749;47.850;9.002;2023-10-08T03:26:58;96834.28;;;8.15
67966;BMP280;54749;47.850;9.002;2023-10-08T03:29:42;96841.00;;;8.14
67966;BMP280;54749;47.850;9.002;2023-10-08T03:32:13;96827.72;;;8.12
67966;BMP280;54749;47.850;9.002;2023-10-08T03:34:46;96822.66;;;8.12
67966;BMP280;54749;47.850;9.002;2023-10-08T03:37:15;96827.06;;;8.09
67966;BMP280;54749;47.850;9.002;2023-10-08T03:39:48;96838.91;;;8.07
67966;BMP280;54749;47.850;9.002;2023-10-08T03:42:23;96830.19;;;7.97
67966;BMP280;54749;47.850;9.002;2023-10-08T03:44:51;96841.38;;;7.92
67966;BMP280;54749;47.850;9.002;2023-10-08T03:47:19;96833.00;;;7.91
67966;BMP280;54749;47.850;9.002;2023-10-08T03:49:49;96837.88;;;7.94
67966;BMP280;54749;47.850;9.002;2023-10-08T03:52:18;96836.78;;;8.00
67966;BMP280;54749;47.850;9.002;2023-10-08T03:54:54;96833.47;;;8.14
67966;BMP280;54749;47.850;9.002;2023-10-08T03:57:44;96831.50;;;8.19
67966;BMP280;54749;47.850;9.002;2023-10-08T04:00:15;96834.03;;;8.19
67966;BMP280;54749;47.850;9.002;2023-10-08T04:02:45;96830.81;;;8.17
67966;BMP280;54749;47.850;9.002;2023-10-08T04:05:36;96832.69;;;8.14
67966;BMP280;54749;47.850;9.002;2023-10-08T04:08:30;96830.22;;;8.12
67966;BMP280;54749;47.850;9.002;2023-10-08T04:11:10;96847.09;;;8.10
67966;BMP280;54749;47.850;9.002;2023-10-08T04:13:58;96828.91;;;8.05
67966;BMP280;54749;47.850;9.002;2023-10-08T04:16:31;96830.94;;;7.99
67966;BMP280;54749;47.850;9.002;2023-10-08T04:18:58;96831.16;;;7.95
67966;BMP280;54749;47.850;9.002;2023-10-08T04:21:30;96817.09;;;7.91
67966;BMP280;54749;47.850;9.002;2023-10-08T04:24:01;96823.91;;;7.89
67966;BMP280;54749;47.850;9.002;2023-10-08T04:26:35;96830.72;;;7.87
67966;BMP280;54749;47.850;9.002;2023-10-08T04:29:02;96822.13;;;7.91
67966;BMP280;54749;47.850;9.002;2023-10-08T04:31:30;96812.34;;;8.02
67966;BMP280;54749;47.850;9.002;2023-10-08T04:34:05;96812.91;;;8.06
67966;BMP280;54749;47.850;9.002;2023-10-08T04:36:37;96806.25;;;8.05
67966;BMP280;54749;47.850;9.002;2023-10-08T04:39:05;96819.16;;;8.00
67966;BMP280;54749;47.850;9.002;2023-10-08T04:41:41;96801.66;;;7.97
67966;BMP280;54749;47.850;9.002;2023-10-08T04:44:12;96812.56;;;7.97
67966;BMP280;54749;47.850;9.002;2023-10-08T04:46:44;96804.34;;;7.94
67966;BMP280;54749;47.850;9.002;2023-10-08T04:49:14;96801.91;;;7.92
67966;BMP280;54749;47.850;9.002;2023-10-08T04:52:05;96807.91;;;7.90
67966;BMP280;54749;47.850;9.002;2023-10-08T04:54:35;96798.72;;;7.89
67966;BMP280;54749;47.850;9.002;2023-10-08T04:57:07;96815.47;;;7.90
67966;BMP280;54749;47.850;9.002;2023-10-08T04:59:42;96814.47;;;7.92
67966;BMP280;54749;47.850;9.002;2023-10-08T05:02:10;96797.69;;;7.93
67966;BMP280;54749;47.850;9.002;2023-10-08T05:04:49;96807.75;;;7.93
67966;BMP280;54749;47.850;9.002;2023-10-08T05:07:20;96800.13;;;7.94
67966;BMP280;54749;47.850;9.002;2023-10-08T05:10:06;96792.50;;;7.96
67966;BMP280;54749;47.850;9.002;2023-10-08T05:12:34;96789.19;;;7.95
67966;BMP280;54749;47.850;9.002;2023-10-08T05:15:17;96790.00;;;7.96
67966;BMP280;54749;47.850;9.002;2023-10-08T05:17:46;96786.72;;;7.94
67966;BMP280;54749;47.850;9.002;2023-10-08T05:20:17;96790.88;;;7.95
67966;BMP280;54749;47.850;9.002;2023-10-08T05:23:11;96789.25;;;7.94
67966;BMP280;54749;47.850;9.002;2023-10-08T05:26:02;96789.56;;;7.88
67966;BMP280;54749;47.850;9.002;2023-10-08T05:28:37;96794.81;;;7.84
67966;BMP280;54749;47.850;9.002;2023-10-08T05:31:28;96798.09;;;7.86
67966;BMP280;54749;47.850;9.002;2023-10-08T05:34:20;96795.97;;;7.78
67966;BMP280;54749;47.850;9.002;2023-10-08T05:36:59;96809.13;;;7.83
67966;BMP280;54749;47.850;9.002;2023-10-08T05:39:27;96789.56;;;7.88
67966;BMP280;54749;47.850;9.002;2023-10-08T05:42:07;96805.09;;;7.96
67966;BMP280;54749;47.850;9.002;2023-10-08T05:44:47;96806.34;;;8.04
67966;BMP280;54749;47.850;9.002;2023-10-08T05:47:33;96800.59;;;8.17
67966;BMP280;54749;47.850;9.002;2023-10-08T05:50:01;96786.28;;;8.33
67966;BMP280;54749;47.850;9.002;2023-10-08T05:52:47;96799.34;;;8.54
67966;BMP280;54749;47.850;9.002;2023-10-08T05:55:30;96800.34;;;8.80
67966;BMP280;54749;47.850;9.002;2023-10-08T05:58:04;96802.06;;;9.09
67966;BMP280;54749;47.850;9.002;2023-10-08T06:00:45;96808.50;;;9.41
67966;BMP280;54749;47.850;9.002;2023-10-08T06:03:31;96793.31;;;9.83
67966;BMP280;54749;47.850;9.002;2023-10-08T06:06:06;96802.78;;;10.21
67966;BMP280;54749;47.850;9.002;2023-10-08T06:08:42;96789.34;;;10.72
67966;BMP280;54749;47.850;9.002;2023-10-08T06:11:28;96794.63;;;11.19
67966;BMP280;54749;47.850;9.002;2023-10-08T06:14:11;96781.81;;;11.58
67966;BMP280;54749;47.850;9.002;2023-10-08T06:16:44;96796.03;;;12.08
67966;BMP280;54749;47.850;9.002;2023-10-08T06:19:14;96782.16;;;12.48
67966;BMP280;54749;47.850;9.002;2023-10-08T06:21:42;96789.03;;;13.04
67966;BMP280;54749;47.850;9.002;2023-10-08T06:24:09;96786.16;;;13.53
67966;BMP280;54749;47.850;9.002;2023-10-08T06:26:38;96798.00;;;14.07
67966;BMP280;54749;47.850;9.002;2023-10-08T06:29:15;96786.13;;;14.19
67966;BMP280;54749;47.850;9.002;2023-10-08T06:31:46;96777.13;;;14.56
67966;BMP280;54749;47.850;9.002;2023-10-08T06:34:18;96778.03;;;15.07
67966;BMP280;54749;47.850;9.002;2023-10-08T06:36:50;96786.38;;;15.69
67966;BMP280;54749;47.850;9.002;2023-10-08T06:39:24;96786.47;;;16.07
67966;BMP280;54749;47.850;9.002;2023-10-08T06:42:14;96788.34;;;16.44
67966;BMP280;54749;47.850;9.002;2023-10-08T06:44:44;96791.16;;;16.98
67966;BMP280;54749;47.850;9.002;2023-10-08T06:47:13;96762.06;;;17.82
67966;BMP280;54749;47.850;9.002;2023-10-08T06:49:43;96768.72;;;18.54
67966;BMP280;54749;47.850;9.002;2023-10-08T06:52:11;96778.47;;;19.28
67966;BMP280;54749;47.850;9.002;2023-10-08T06:54:40;96766.84;;;20.24
67966;BMP280;54749;47.850;9.002;2023-10-08T06:57:07;96780.66;;;21.12
67966;BMP280;54749;47.850;9.002;2023-10-08T06:59:41;96761.97;;;22.11
67966;BMP280;54749;47.850;9.002;2023-10-08T07:02:10;96764.16;;;22.75
67966;BMP280;54749;47.850;9.002;2023-10-08T07:04:37;96779.28;;;23.37
67966;BMP280;54749;47.850;9.002;2023-10-08T07:07:07;96765.16;;;24.05
67966;BMP280;54749;47.850;9.002;2023-10-08T07:09:36;96760.25;;;24.38
67966;BMP280;54749;47.850;9.002;2023-10-08T07:12:03;96772.72;;;24.49
67966;BMP280;54749;47.850;9.002;2023-10-08T07:14:40;96763.66;;;25.01
67966;BMP280;54749;47.850;9.002;2023-10-08T07:17:09;96753.91;;;25.38
67966;BMP280;54749;47.850;9.002;2023-10-08T07:19:39;96765.63;;;25.81
67966;BMP280;54749;47.850;9.002;2023-10-08T07:22:08;96769.97;;;26.28
67966;BMP280;54749;47.850;9.002;2023-10-08T07:24:56;96772.22;;;26.04
67966;BMP280;54749;47.850;9.002;2023-10-08T07:27:25;96885.56;;;26.16
67966;BMP280;54749;47.850;9.002;2023-10-08T07:29:59;96786.41;;;25.06
67966;BMP280;54749;47.850;9.002;2023-10-08T07:32:30;96790.13;;;25.03
67966;BMP280;54749;47.850;9.002;2023-10-08T07:34:58;96777.31;;;26.18
67966;BMP280;54749;47.850;9.002;2023-10-08T07:37:42;96775.91;;;27.34
67966;BMP280;54749;47.850;9.002;2023-10-08T07:40:10;96771.19;;;27.94
67966;BMP280;54749;47.850;9.002;2023-10-08T07:42:40;96756.53;;;28.44
67966;BMP280;54749;47.850;9.002;2023-10-08T07:45:07;96770.56;;;29.04
67966;BMP280;54749;47.850;9.002;2023-10-08T07:47:36;96763.38;;;29.67
67966;BMP280;54749;47.850;9.002;2023-10-08T07:50:03;96757.06;;;30.52
67966;BMP280;54749;47.850;9.002;2023-10-08T07:52:39;96741.50;;;31.09
67966;BMP280;54749;47.850;9.002;2023-10-08T07:55:11;96756.34;;;31.55
67966;BMP280;54749;47.850;9.002;2023-10-08T07:57:45;96759.44;;;31.63
67966;BMP280;54749;47.850;9.002;2023-10-08T08:00:13;96739.28;;;32.48
67966;BMP280;54749;47.850;9.002;2023-10-08T08:02:51;96755.53;;;33.22
67966;BMP280;54749;47.850;9.002;2023-10-08T08:05:19;96742.06;;;33.73
67966;BMP280;54749;47.850;9.002;2023-10-08T08:07:48;96746.72;;;34.14
67966;BMP280;54749;47.850;9.002;2023-10-08T08:10:19;96759.13;;;34.35
67966;BMP280;54749;47.850;9.002;2023-10-08T08:12:46;96758.81;;;34.15
67966;BMP280;54749;47.850;9.002;2023-10-08T08:15:13;96739.16;;;34.55
67966;BMP280;54749;47.850;9.002;2023-10-08T08:17:44;96763.56;;;33.86
67966;BMP280;54749;47.850;9.002;2023-10-08T08:20:15;96774.63;;;33.45
67966;BMP280;54749;47.850;9.002;2023-10-08T08:22:45;96766.22;;;33.59
67966;BMP280;54749;47.850;9.002;2023-10-08T08:25:21;96768.63;;;33.22
67966;BMP280;54749;47.850;9.002;2023-10-08T08:28:01;96772.72;;;32.91
67966;BMP280;54749;47.850;9.002;2023-10-08T08:30:33;96780.34;;;33.42
67966;BMP280;54749;47.850;9.002;2023-10-08T08:33:04;96791.28;;;32.78
67966;BMP280;54749;47.850;9.002;2023-10-08T08:35:38;96783.31;;;32.73
67966;BMP280;54749;47.850;9.002;2023-10-08T08:38:05;96784.91;;;32.74
67966;BMP280;54749;47.850;9.002;2023-10-08T08:40:36;96773.41;;;33.63
67966;BMP280;54749;47.850;9.002;2023-10-08T08:43:05;96768.34;;;34.21
67966;BMP280;54749;47.850;9.002;2023-10-08T08:45:34;96776.47;;;35.10
67966;BMP280;54749;47.850;9.002;2023-10-08T08:48:02;96774.75;;;35.41
67966;BMP280;54749;47.850;9.002;2023-10-08T08:50:30;96790.03;;;35.44
67966;BMP280;54749;47.850;9.002;2023-10-08T08:52:59;96772.53;;;35.28
67966;BMP280;54749;47.850;9.002;2023-10-08T08:55:26;96784.44;;;35.61
67966;BMP280;54749;47.850;9.002;2023-10-08T08:57:55;96761.25;;;35.58
67966;BMP280;54749;47.850;9.002;2023-10-08T09:00:24;96763.47;;;35.66
67966;BMP280;54749;47.850;9.002;2023-10-08T09:02:55;96765.19;;;35.82
67966;BMP280;54749;47.850;9.002;2023-10-08T09:05:23;96777.47;;;35.72
67966;BMP280;54749;47.850;9.002;2023-10-08T09:07:58;96766.16;;;36.37
67966;BMP280;54749;47.850;9.002;2023-10-08T09:10:26;96771.25;;;36.94
67966;BMP280;54749;47.850;9.002;2023-10-08T09:12:57;96769.03;;;37.21
67966;BMP280;54749;47.850;9.002;2023-10-08T09:15:28;96769.28;;;37.15
67966;BMP280;54749;47.850;9.002;2023-10-08T09:17:56;96779.41;;;37.42
67966;BMP280;54749;47.850;9.002;2023-10-08T09:20:23;96770.00;;;37.80
67966;BMP280;54749;47.850;9.002;2023-10-08T09:23:08;96762.56;;;37.63
67966;BMP280;54749;47.850;9.002;2023-10-08T09:25:43;96760.88;;;37.28
67966;BMP280;54749;47.850;9.002;2023-10-08T09:28:11;96748.31;;;37.64
67966;BMP280;54749;47.850;9.002;2023-10-08T09:30:41;96761.31;;;38.04
67966;BMP280;54749;47.850;9.002;2023-10-08T09:33:11;96770.84;;;38.29
67966;BMP280;54749;47.850;9.002;2023-10-08T09:35:45;96755.22;;;38.62
67966;BMP280;54749;47.850;9.002;2023-10-08T09:38:13;96757.22;;;38.94
67966;BMP280;54749;47.850;9.002;2023-10-08T09:40:51;96763.72;;;38.30
67966;BMP280;54749;47.850;9.002;2023-10-08T09:43:20;96773.09;;;37.48
67966;BMP280;54749;47.850;9.002;2023-10-08T09:45:54;96775.63;;;35.25
67966;BMP280;54749;47.850;9.002;2023-10-08T09:48:25;96793.06;;;34.25
67966;BMP280;54749;47.850;9.002;2023-10-08T09:50:55;96797.63;;;34.14
67966;BMP280;54749;47.850;9.002;2023-10-08T09:53:39;96789.59;;;34.04
67966;BMP280;54749;47.850;9.002;2023-10-08T09:56:13;96792.53;;;34.23
67966;BMP280;54749;47.850;9.002;2023-10-08T09:58:43;96798.00;;;34.70
67966;BMP280;54749;47.850;9.002;2023-10-08T10:01:11;96787.88;;;34.99
67966;BMP280;54749;47.850;9.002;2023-10-08T10:03:39;96796.72;;;35.09
67966;BMP280;54749;47.850;9.002;2023-10-08T10:06:13;96776.44;;;35.52
67966;BMP280;54749;47.850;9.002;2023-10-08T10:08:43;96792.78;;;35.12
67966;BMP280;54749;47.850;9.002;2023-10-08T10:11:11;96799.47;;;34.29
67966;BMP280;54749;47.850;9.002;2023-10-08T10:13:44;96809.94;;;33.15
67966;BMP280;54749;47.850;9.002;2023-10-08T10:16:11;96805.94;;;33.13
67966;BMP280;54749;47.850;9.002;2023-10-08T10:18:44;96815.00;;;32.72
67966;BMP280;54749;47.850;9.002;2023-10-08T10:23:44;96812.50;;;33.26
67966;BMP280;54749;47.850;9.002;2023-10-08T10:26:25;96810.72;;;33.54
67966;BMP280;54749;47.850;9.002;2023-10-08T10:31:43;96812.38;;;32.61
67966;BMP280;54749;47.850;9.002;2023-10-08T10:34:15;96818.16;;;32.74
67966;BMP280;54749;47.850;9.002;2023-10-08T10:36:47;96826.38;;;32.77
67966;BMP280;54749;47.850;9.002;2023-10-08T10:39:21;96819.34;;;32.44
67966;BMP280;54749;47.850;9.002;2023-10-08T10:41:58;96817.13;;;33.08
67966;BMP280;54749;47.850;9.002;2023-10-08T10:44:30;96810.41;;;34.37
67966;BMP280;54749;47.850;9.002;2023-10-08T10:46:59;96808.63;;;35.17
67966;BMP280;54749;47.850;9.002;2023-10-08T10:49:47;96790.75;;;35.60
67966;BMP280;54749;47.850;9.002;2023-10-08T10:52:27;96792.84;;;35.84
67966;BMP280;54749;47.850;9.002;2023-10-08T10:55:14;96813.06;;;34.74
67966;BMP280;54749;47.850;9.002;2023-10-08T10:57:46;96803.81;;;34.08
67966;BMP280;54749;47.850;9.002;2023-10-08T11:00:25;96819.03;;;33.24
67966;BMP280;54749;47.850;9.002;2023-10-08T11:03:03;96831.78;;;31.98
67966;BMP280;54749;47.850;9.002;2023-10-08T11:05:33;96833.19;;;31.54
67966;BMP280;54749;47.850;9.002;2023-10-08T11:08:06;96821.97;;;31.18
67966;BMP280;54749;47.850;9.002;2023-10-08T11:10:38;96835.81;;;30.66
67966;BMP280;54749;47.850;9.002;2023-10-08T11:13:06;96835.41;;;30.22
67966;BMP280;54749;47.850;9.002;2023-10-08T11:15:46;96833.25;;;29.89
67966;BMP280;54749;47.850;9.002;2023-10-08T11:18:22;96848.06;;;29.58
67966;BMP280;54749;47.850;9.002;2023-10-08T11:20:51;96851.41;;;29.35
67966;BMP280;54749;47.850;9.002;2023-10-08T11:23:36;96841.41;;;29.19
67966;BMP280;54749;47.850;9.002;2023-10-08T11:26:05;96839.22;;;29.10
67966;BMP280;54749;47.850;9.002;2023-10-08T11:28:41;96839.59;;;28.51
67966;BMP280;54749;47.850;9.002;2023-10-08T11:31:13;96838.19;;;28.36
67966;BMP280;54749;47.850;9.002;2023-10-08T11:33:42;96839.59;;;28.51
67966;BMP280;54749;47.850;9.002;2023-10-08T11:36:10;96836.16;;;28.45
67966;BMP280;54749;47.850;9.002;2023-10-08T11:38:56;96832.56;;;28.65
67966;BMP280;54749;47.850;9.002;2023-10-08T11:41:35;96828.75;;;28.61
67966;BMP280;54749;47.850;9.002;2023-10-08T11:44:16;96824.13;;;28.63
67966;BMP280;54749;47.850;9.002;2023-10-08T11:46:46;96823.75;;;28.59
67966;BMP280;54749;47.850;9.002;2023-10-08T11:49:19;96819.97;;;28.11
67966;BMP280;54749;47.850;9.002;2023-10-08T11:52:03;96816.78;;;28.03
67966;BMP280;54749;47.850;9.002;2023-10-08T11:54:30;96812.78;;;28.13
67966;BMP280;54749;47.850;9.002;2023-10-08T11:57:00;96811.38;;;28.48
67966;BMP280;54749;47.850;9.002;2023-10-08T11:59:29;96810.50;;;28.67
67966;BMP280;54749;47.850;9.002;2023-10-08T12:01:59;96806.94;;;28.74
67966;BMP280;54749;47.850;9.002;2023-10-08T12:04:26;96811.75;;;28.52
67966;BMP280;54749;47.850;9.002;2023-10-08T12:06:58;96804.38;;;28.11
67966;BMP280;54749;47.850;9.002;2023-10-08T12:09:29;96807.00;;;28.30
67966;BMP280;54749;47.850;9.002;2023-10-08T12:11:56;96806.38;;;28.41
67966;BMP280;54749;47.850;9.002;2023-10-08T12:14:24;96805.81;;;28.26
67966;BMP280;54749;47.850;9.002;2023-10-08T12:16:57;96802.19;;;28.08
67966;BMP280;54749;47.850;9.002;2023-10-08T12:19:27;96801.56;;;28.12
67966;BMP280;54749;47.850;9.002;2023-10-08T12:21:55;96802.56;;;27.99
67966;BMP280;54749;47.850;9.002;2023-10-08T12:24:23;96802.97;;;27.90
67966;BMP280;54749;47.850;9.002;2023-10-08T12:26:50;96795.34;;;27.76
67966;BMP280;54749;47.850;9.002;2023-10-08T12:29:18;96803.56;;;27.73
67966;BMP280;54749;47.850;9.002;2023-10-08T12:31:46;96797.38;;;27.74
67966;BMP280;54749;47.850;9.002;2023-10-08T12:34:15;96792.50;;;27.39
67966;BMP280;54749;47.850;9.002;2023-10-08T12:36:44;96794.69;;;27.36
67966;BMP280;54749;47.850;9.002;2023-10-08T12:39:13;96792.53;;;27.52
67966;BMP280;54749;47.850;9.002;2023-10-08T12:41:44;96790.97;;;27.70
67966;BMP280;54749;47.850;9.002;2023-10-08T12:44:11;96789.38;;;27.69
67966;BMP280;54749;47.850;9.002;2023-10-08T12:46:40;96795.34;;;27.63
67966;BMP280;54749;47.850;9.002;2023-10-08T12:49:11;96782.09;;;27.45
67966;BMP280;54749;47.850;9.002;2023-10-08T12:51:38;96778.25;;;27.16
67966;BMP280;54749;47.850;9.002;2023-10-08T12:54:08;96776.16;;;26.99
67966;BMP280;54749;47.850;9.002;2023-10-08T12:56:39;96780.97;;;26.96
67966;BMP280;54749;47.850;9.002;2023-10-08T12:59:12;96782.94;;;26.94
67966;BMP280;54749;47.850;9.002;2023-10-08T13:01:49;96781.72;;;26.84
67966;BMP280;54749;47.850;9.002;2023-10-08T13:04:22;96769.91;;;26.75
67966;BMP280;54749;47.850;9.002;2023-10-08T13:06:59;96774.69;;;26.78
67966;BMP280;54749;47.850;9.002;2023-10-08T13:09:30;96774.91;;;26.83
67966;BMP280;54749;47.850;9.002;2023-10-08T13:12:04;96770.34;;;26.91
67966;BMP280;54749;47.850;9.002;2023-10-08T13:14:32;96761.25;;;27.07
67966;BMP280;54749;47.850;9.002;2023-10-08T13:17:03;96763.66;;;27.09
67966;BMP280;54749;47.850;9.002;2023-10-08T13:19:30;96766.03;;;27.10
67966;BMP280;54749;47.850;9.002;2023-10-08T13:22:02;96765.97;;;26.98
67966;BMP280;54749;47.850;9.002;2023-10-08T13:24:33;96780.72;;;26.91
67966;BMP280;54749;47.850;9.002;2023-10-08T13:27:03;96777.91;;;26.86
67966;BMP280;54749;47.850;9.002;2023-10-08T13:29:33;96770.06;;;26.73
67966;BMP280;54749;47.850;9.002;2023-10-08T13:32:01;96771.41;;;26.63
67966;BMP280;54749;47.850;9.002;2023-10-08T13:34:31;96777.19;;;26.59
67966;BMP280;54749;47.850;9.002;2023-10-08T13:36:58;96771.56;;;26.49
67966;BMP280;54749;47.850;9.002;2023-10-08T13:39:25;96774.47;;;26.40
67966;BMP280;54749;47.850;9.002;2023-10-08T13:41:54;96767.63;;;26.33
67966;BMP280;54749;47.850;9.002;2023-10-08T13:44:23;96769.81;;;26.29
67966;BMP280;54749;47.850;9.002;2023-10-08T13:46:58;96766.38;;;26.22
67966;BMP280;54749;47.850;9.002;2023-10-08T13:49:27;96763.88;;;26.08
67966;BMP280;54749;47.850;9.002;2023-10-08T13:51:54;96771.72;;;25.88
67966;BMP280;54749;47.850;9.002;2023-10-08T13:54:24;96769.56;;;25.71
67966;BMP280;54749;47.850;9.002;2023-10-08T13:56:59;96771.03;;;25.59
67966;BMP280;54749;47.850;9.002;2023-10-08T13:59:29;96768.28;;;25.40
67966;BMP280;54749;47.850;9.002;2023-10-08T14:01:59;96768.50;;;25.25
67966;BMP280;54749;47.850;9.002;2023-10-08T14:04:30;96771.00;;;25.18
67966;BMP280;54749;47.850;9.002;2023-10-08T14:06:58;96763.78;;;25.14
67966;BMP280;54749;47.850;9.002;2023-10-08T14:09:25;96773.25;;;25.21
67966;BMP280;54749;47.850;9.002;2023-10-08T14:12:03;96770.50;;;25.23
67966;BMP280;54749;47.850;9.002;2023-10-08T14:14:30;96759.50;;;25.21
67966;BMP280;54749;47.850;9.002;2023-10-08T14:16:58;96763.97;;;25.12
67966;BMP280;54749;47.850;9.002;2023-10-08T14:19:38;96762.44;;;24.97
67966;BMP280;54749;47.850;9.002;2023-10-08T14:22:19;96761.38;;;24.78
67966;BMP280;54749;47.850;9.002;2023-10-08T14:24:49;96760.25;;;24.66
67966;BMP280;54749;47.850;9.002;2023-10-08T14:27:27;96756.78;;;24.59
67966;BMP280;54749;47.850;9.002;2023-10-08T14:30:00;96748.91;;;24.53
67966;BMP280;54749;47.850;9.002;2023-10-08T14:32:28;96750.59;;;24.46
67966;BMP280;54749;47.850;9.002;2023-10-08T14:34:59;96752.16;;;24.41
67966;BMP280;54749;47.850;9.002;2023-10-08T14:37:45;96737.34;;;24.35
67966;BMP280;54749;47.850;9.002;2023-10-08T14:40:31;96745.38;;;24.40
67966;BMP280;54749;47.850;9.002;2023-10-08T14:43:16;96744.03;;;24.44
67966;BMP280;54749;47.850;9.002;2023-10-08T14:45:47;96744.63;;;24.46
67966;BMP280;54749;47.850;9.002;2023-10-08T14:48:14;96747.16;;;24.40
67966;BMP280;54749;47.850;9.002;2023-10-08T14:50:43;96732.44;;;24.26